SMTO2: Mountain Fork Nr Smithville, O

Data processed at Tue May 21 2019 22:30


All information presented herein is the property of the government of the United States of America and may be revised or deleted at any time without prior notice.
Dissemination of this information without the expressed written consent of the Public Affairs Office, Tulsa District U.S. Army Corps of Engineers is strictly prohibited.
These data are gathered electronically and, as presented, have not undergone any form of quality control. These data are not guaranteed to be valid or correct.
Go to home page.
Go to station list.
Go to home page.

Upstream stations:

Downstream station:
Previous Day
Next Day
Current Day
    
SHEF ID:       SMTO2     Mountain Fork at Smithville, OK
STATION TYPE:  

               PRECIP     STAGE  RIV-FLOW  BAT-LOAD
                   in        ft       cfs      volt
              Ccp-Rev   Ccp-Rev   Ccp-Rev   Ccp-Rev
(US/Central)
05/21 00:00      0.00      9.56      1780     12.89
05/21 01:00      0.00      9.55      1768     12.81
05/21 02:00      0.00      9.55      1768     12.81
05/21 03:00      0.00      9.54      1756     12.81
05/21 04:00      0.00      9.54      1756     12.73
05/21 05:00      0.00      9.53      1744     12.73
05/21 06:00      0.00      9.53      1744     12.73
05/21 07:00      0.00      9.52      1732     12.73
05/21 08:00      0.00      9.52      1732     12.81
05/21 09:00      0.00      9.51      1720     13.29
05/21 10:00      0.00      9.50      1708     13.53
05/21 11:00      0.00      9.50      1708     13.05
05/21 12:00      0.66      9.58      1805     12.97
05/21 13:00      0.32      9.76      2037     12.89
05/21 14:00      0.13      9.95      2303     13.37
05/21 15:00      0.07     10.07      2473     13.29
05/21 16:00      0.01     10.45      3064     13.60
05/21 17:00      0.00     10.55      3238     13.60
05/21 18:00      0.00     10.55      3238     13.44
05/21 19:00      0.00     10.52      3185     13.29
05/21 20:00      0.00     10.49      3132     13.05
05/21 21:00      0.00     10.49      3132     12.89
05/21 22:00      ----      ----      ----      ----
05/21 23:00      ----      ----      ----      ----